Time;durP1;ratioP1;P1;durP2;ratioP2;P2;SDS_P1;SDS_P2;PMS_P1;PMS_P2;Temp;Humidity;BMP_temperature;BMP_pressure;BME280_temperature;BME280_humidity;BME280_pressure;Samples;Min_cycle;Max_cycle;Signal;HPM_P1;HPM_P2
2022/12/24 00:00:02;;;;;;;31.93;22.90;;;;;;;5.72;83.84;100714.06;1751703;80;20897;-83
2022/12/24 00:02:31;;;;;;;30.82;22.95;;;;;;;5.74;83.83;100712.71;1747366;80;20892;-82
2022/12/24 00:04:57;;;;;;;36.33;24.40;;;;;;;5.73;83.68;100707.09;1743387;80;21157;-83
2022/12/24 00:07:24;;;;;;;33.40;23.62;;;;;;;5.70;83.61;100713.27;1755526;80;20884;-82
2022/12/24 00:09:50;;;;;;;32.45;22.80;;;;;;;5.69;83.60;100698.58;1757070;80;20983;-82
2022/12/24 00:12:16;;;;;;;26.97;19.87;;;;;;;5.68;83.65;100698.63;1758267;80;20927;-83
2022/12/24 00:14:43;;;;;;;29.77;21.25;;;;;;;5.64;83.83;100692.69;1753055;80;20884;-84
2022/12/24 00:17:11;;;;;;;29.45;21.95;;;;;;;5.63;84.00;100699.27;1773148;80;20954;-83
2022/12/24 00:19:37;;;;;;;29.10;21.05;;;;;;;5.62;84.16;100695.80;1769634;80;20983;-84
2022/12/24 00:22:04;;;;;;;34.15;22.52;;;;;;;5.61;84.19;100689.75;1772849;81;21354;-81
2022/12/24 00:24:31;;;;;;;27.98;20.92;;;;;;;5.60;84.21;100689.38;1740999;80;20992;-81
2022/12/24 00:26:58;;;;;;;35.08;21.70;;;;;;;5.57;84.22;100684.27;1750693;80;21467;-81
2022/12/24 00:29:25;;;;;;;30.55;21.27;;;;;;;5.56;84.22;100685.65;1750201;80;21297;-83
2022/12/24 00:31:51;;;;;;;26.48;19.95;;;;;;;5.55;84.28;100683.94;1760818;80;20999;-82
2022/12/24 00:34:18;;;;;;;34.70;24.50;;;;;;;5.54;84.34;100682.25;1767159;80;20948;-84
2022/12/24 00:36:45;;;;;;;37.00;25.68;;;;;;;5.53;84.50;100680.08;1766472;80;21067;-83
2022/12/24 00:39:11;;;;;;;33.75;23.15;;;;;;;5.52;84.55;100674.96;1764218;80;21027;-83
2022/12/24 00:41:37;;;;;;;36.15;23.95;;;;;;;5.50;84.51;100679.38;1751587;80;21175;-82
2022/12/24 00:44:08;;;;;;;36.77;23.95;;;;;;;5.48;84.53;100674.67;1761857;80;21003;-83
2022/12/24 00:46:38;;;;;;;32.23;23.57;;;;;;;5.44;84.60;100672.63;1771527;81;20936;-82
2022/12/24 00:49:05;;;;;;;36.20;23.57;;;;;;;5.43;84.62;100671.41;1748087;80;20865;-83
2022/12/24 00:51:31;;;;;;;28.75;20.57;;;;;;;5.41;84.72;100672.77;1752129;80;20920;-83
2022/12/24 00:53:58;;;;;;;30.60;21.70;;;;;;;5.40;84.89;100666.72;1774215;80;21142;-83
2022/12/24 00:56:25;;;;;;;33.40;22.02;;;;;;;5.40;85.01;100669.75;1742090;80;20904;-81
2022/12/24 00:58:52;;;;;;;33.05;23.40;;;;;;;5.38;85.15;100665.93;1775247;80;20904;-83
2022/12/24 01:01:19;;;;;;;37.05;25.48;;;;;;;5.38;85.16;100657.25;1757722;80;21113;-81
2022/12/24 01:03:46;;;;;;;37.38;24.25;;;;;;;5.37;85.05;100658.17;1755738;80;20920;-82
2022/12/24 01:06:17;;;;;;;37.03;23.47;;;;;;;5.34;85.09;100655.70;1756331;80;21162;-83
2022/12/24 01:08:44;;;;;;;32.15;23.95;;;;;;;5.33;85.18;100659.19;1761949;80;21037;-83
2022/12/24 01:11:12;;;;;;;32.35;20.60;;;;;;;5.32;85.38;100654.91;1745683;80;20920;-83
2022/12/24 01:13:39;;;;;;;34.05;23.27;;;;;;;5.32;85.57;100660.95;1739692;80;21448;-83
2022/12/24 01:16:19;;;;;;;35.28;25.40;;;;;;;5.32;85.57;100660.11;1766352;80;21112;-82
2022/12/24 01:18:45;;;;;;;33.28;23.32;;;;;;;5.32;85.62;100664.85;1770641;80;21560;-82
2022/12/24 01:21:12;;;;;;;40.55;26.55;;;;;;;5.32;85.62;100658.81;1763350;80;21023;-83
2022/12/24 01:23:39;;;;;;;38.78;26.65;;;;;;;5.32;85.63;100661.41;1765049;80;20991;-83
2022/12/24 01:26:05;;;;;;;34.80;23.55;;;;;;;5.35;85.57;100661.28;1760467;80;20976;-82
2022/12/24 01:28:32;;;;;;;33.60;24.45;;;;;;;5.39;85.54;100664.17;1766247;80;20999;-82
2022/12/24 01:30:59;;;;;;;37.55;24.75;;;;;;;5.42;85.57;100664.04;1778383;80;21795;-82
2022/12/24 01:33:29;;;;;;;34.60;25.20;;;;;;;5.45;85.61;100663.94;1766550;80;20905;-83
2022/12/24 01:35:55;;;;;;;40.00;26.82;;;;;;;5.48;85.57;100661.21;1774234;80;20972;-82
2022/12/24 01:38:22;;;;;;;40.33;28.10;;;;;;;5.50;85.42;100667.67;1776256;80;20944;-85
2022/12/24 01:43:33;;;;;;;47.85;30.00;;;;;;;5.48;85.17;100663.81;1754671;80;26344;-84
2022/12/24 01:46:05;;;;;;;38.10;26.68;;;;;;;5.51;85.08;100664.14;1774739;80;20948;-84
2022/12/24 01:48:40;;;;;;;42.70;27.62;;;;;;;5.52;84.99;100662.80;1751955;80;20908;-83
2022/12/24 01:51:36;;;;;;;;;;;;;;;5.50;85.18;100657.27;1753018;80;21004;-85
2022/12/24 01:54:12;;;;;;;;;;;;;;;5.50;85.36;100658.56;1745669;80;20129;-87
2022/12/24 01:56:42;;;;;;;44.25;29.87;;;;;;;5.50;85.58;100655.97;1744396;80;21100;-85
2022/12/24 01:59:12;;;;;;;46.35;29.02;;;;;;;5.50;85.58;100656.80;1743982;81;20967;-83
2022/12/24 02:01:38;;;;;;;47.62;31.37;;;;;;;5.50;85.54;100665.06;1771344;80;20864;-85
2022/12/24 02:04:30;;;;;;;46.08;31.42;;;;;;;5.50;85.50;100658.56;1746327;80;20924;-83
2022/12/24 02:06:57;;;;;;;43.05;28.92;;;;;;;5.49;85.42;100665.95;1779329;78;21555;-82
2022/12/24 02:09:24;;;;;;;41.42;28.10;;;;;;;5.47;85.61;100664.73;1773182;78;21166;-83
2022/12/24 02:11:51;;;;;;;41.53;26.20;;;;;;;5.46;85.92;100666.92;1781660;77;20869;-84
2022/12/24 02:14:17;;;;;;;42.73;29.02;;;;;;;5.46;86.18;100667.38;1781880;78;20924;-81
2022/12/24 02:17:04;;;;;;;43.92;29.42;;;;;;;5.45;86.31;100667.84;1778559;80;21019;-83
2022/12/24 02:19:49;;;;;;;40.35;29.20;;;;;;;5.46;86.32;100660.88;1779283;78;20975;-82
2022/12/24 02:22:53;;;;;;;45.63;30.13;;;;;;;5.43;86.30;100664.45;1778174;80;21238;-82
2022/12/24 02:25:43;;;;;;;37.70;27.22;;;;;;;5.41;86.33;100663.66;1746748;81;21283;-85
2022/12/24 02:28:40;;;;;;;38.73;27.20;;;;;;;5.38;86.38;100663.76;1777905;80;21102;-81
2022/12/24 02:31:20;;;;;;;37.40;24.87;;;;;;;5.35;86.60;100669.08;1780853;78;20943;-83
2022/12/24 02:33:52;;;;;;;35.43;23.83;;;;;;;5.33;86.82;100663.93;1778122;78;20995;-82
2022/12/24 02:36:30;;;;;;;38.80;27.02;;;;;;;5.33;87.05;100667.83;1778726;80;21228;-81
2022/12/24 02:39:10;;;;;;;37.63;27.15;;;;;;;5.31;87.10;100667.04;1777503;80;20987;-83
2022/12/24 02:44:28;;;;;;;36.65;24.77;;;;;;;5.30;87.17;100664.06;1773955;78;21006;-82
2022/12/24 02:46:56;;;;;;;35.88;24.18;;;;;;;5.30;87.16;100664.06;1778851;78;20892;-83
2022/12/24 02:49:23;;;;;;;31.68;23.42;;;;;;;5.31;87.27;100661.00;1780565;80;21850;-82
2022/12/24 02:51:49;;;;;;;34.00;24.60;;;;;;;5.32;87.43;100667.91;1778316;78;20963;-79
2022/12/24 02:54:16;;;;;;;42.93;30.43;;;;;;;5.33;87.57;100666.53;1777778;78;20872;-82
2022/12/24 02:57:14;;;;;;;36.13;25.32;;;;;;;5.32;87.67;100670.05;1778130;78;20897;-81
2022/12/24 02:59:52;;;;;;;36.30;25.15;;;;;;;5.37;87.68;100677.67;1778808;78;20963;-82
2022/12/24 03:02:48;;;;;;;37.42;27.02;;;;;;;5.38;87.49;100682.83;1780454;80;21445;-80
2022/12/24 03:05:41;;;;;;;36.50;25.30;;;;;;;5.38;87.32;100686.73;1779074;78;20861;-82
2022/12/24 03:08:24;;;;;;;33.20;23.75;;;;;;;5.40;87.08;100684.92;1775173;80;20999;-83
2022/12/24 03:10:56;;;;;;;42.58;26.02;;;;;;;5.43;87.01;100685.26;1752447;80;20896;-83
2022/12/24 03:13:23;;;;;;;35.73;23.70;;;;;;;5.45;87.09;100679.55;1778390;78;20955;-82
2022/12/24 03:15:50;;;;;;;33.83;24.25;;;;;;;5.48;87.19;100685.08;1778997;80;21918;-83
2022/12/24 03:18:22;;;;;;;36.48;26.55;;;;;;;5.50;87.12;100673.71;1774799;78;20983;-82
2022/12/24 03:21:15;;;;;;;40.63;26.87;;;;;;;5.52;86.92;100680.16;1779928;78;20932;-82
2022/12/24 03:23:41;;;;;;;40.92;27.62;;;;;;;5.52;86.66;100670.59;1778216;78;20995;-85
2022/12/24 03:26:09;;;;;;;39.08;26.35;;;;;;;5.50;86.44;100664.61;1777585;78;20951;-82
2022/12/24 03:28:38;;;;;;;49.70;34.58;;;;;;;5.50;86.29;100671.57;1776960;80;21894;-81
2022/12/24 03:31:05;;;;;;;42.00;28.52;;;;;;;5.49;86.17;100671.16;1774782;78;20956;-83
2022/12/24 03:33:33;;;;;;;36.35;25.85;;;;;;;5.48;86.20;100670.31;1756750;80;21019;-84
2022/12/24 03:36:00;;;;;;;39.05;25.77;;;;;;;5.46;86.27;100675.19;1716141;81;21558;-85
2022/12/24 03:38:26;;;;;;;37.55;26.97;;;;;;;5.45;86.63;100670.45;1715974;83;20978;-84
2022/12/24 03:40:53;;;;;;;39.05;26.95;;;;;;;5.50;86.68;100671.11;1720090;81;21151;-84
2022/12/24 03:43:20;;;;;;;40.83;28.32;;;;;;;5.53;86.67;100669.68;1718861;82;21406;-83
2022/12/24 03:45:46;;;;;;;39.67;26.80;;;;;;;5.59;86.56;100677.25;1717246;81;20968;-83
2022/12/24 03:48:13;;;;;;;38.60;26.82;;;;;;;5.60;86.28;100665.95;1719214;82;21559;-83
2022/12/24 03:50:40;;;;;;;41.55;27.65;;;;;;;5.63;86.21;100665.45;1776433;80;21007;-82
2022/12/24 03:53:06;;;;;;;35.13;26.35;;;;;;;5.65;85.98;100668.38;1774670;80;21217;-83
2022/12/24 03:55:33;;;;;;;37.95;24.75;;;;;;;5.69;85.98;100664.76;1774248;80;20908;-82
2022/12/24 03:57:59;;;;;;;36.45;25.12;;;;;;;5.74;86.10;100660.21;1774638;80;20979;-84
2022/12/24 04:00:28;;;;;;;37.33;26.52;;;;;;;5.81;86.19;100648.64;1779172;80;21365;-83
2022/12/24 04:02:54;;;;;;;40.75;27.93;;;;;;;5.85;85.99;100656.31;1756530;80;20840;-83
2022/12/24 04:05:21;;;;;;;39.00;27.20;;;;;;;5.88;85.93;100653.61;1769317;80;21373;-83
2022/12/24 04:07:49;;;;;;;40.43;27.80;;;;;;;5.90;85.69;100655.24;1772013;80;20900;-82
2022/12/24 04:10:16;;;;;;;38.73;28.07;;;;;;;5.95;85.50;100654.63;1745874;80;21312;-85
2022/12/24 04:12:42;;;;;;;42.75;28.70;;;;;;;5.98;85.42;100655.82;1736291;82;20928;-84
2022/12/24 04:15:10;;;;;;;40.33;27.07;;;;;;;6.02;85.14;100651.32;1780199;80;20896;-83
2022/12/24 04:17:37;;;;;;;34.05;25.68;;;;;;;6.04;84.79;100647.36;1779408;80;21253;-83
2022/12/24 04:20:06;;;;;;;37.48;25.23;;;;;;;6.00;84.81;100652.70;1781406;78;20895;-85
2022/12/24 04:22:33;;;;;;;39.75;28.00;;;;;;;5.97;85.23;100653.27;1786298;78;20951;-82
2022/12/24 04:24:59;;;;;;;40.43;27.40;;;;;;;5.96;85.29;100657.64;1779068;78;20944;-83
2022/12/24 04:27:26;;;;;;;42.90;29.15;;;;;;;5.90;85.18;100657.84;1781863;78;20912;-83
2022/12/24 04:29:52;;;;;;;52.05;35.43;;;;;;;5.88;85.37;100662.27;1778838;78;21134;-82
2022/12/24 04:32:19;;;;;;;47.93;32.20;;;;;;;5.88;85.45;100661.42;1778410;78;20991;-82
2022/12/24 04:34:45;;;;;;;45.73;30.35;;;;;;;5.88;85.30;100657.05;1780411;80;20869;-83
2022/12/24 04:37:12;;;;;;;52.27;33.20;;;;;;;5.89;85.11;100657.47;1780587;78;20983;-83
2022/12/24 04:39:38;;;;;;;41.85;28.35;;;;;;;5.92;85.05;100659.09;1777715;78;21358;-84
2022/12/24 04:42:05;;;;;;;44.65;30.43;;;;;;;5.95;84.98;100660.30;1777453;78;21859;-85
2022/12/24 04:44:33;;;;;;;48.75;32.70;;;;;;;5.92;84.97;100654.73;1777539;78;21398;-83
2022/12/24 04:46:59;;;;;;;43.55;30.40;;;;;;;5.90;84.96;100655.70;1777833;78;20947;-83
2022/12/24 04:49:26;;;;;;;47.62;31.35;;;;;;;5.88;84.92;100653.61;1777857;78;20935;-82
2022/12/24 04:51:52;;;;;;;47.05;31.27;;;;;;;5.87;85.06;100651.90;1779372;79;21805;-80
2022/12/24 04:54:19;;;;;;;51.68;33.75;;;;;;;5.86;84.93;100655.42;1779388;80;21143;-82
2022/12/24 04:56:46;;;;;;;48.50;31.55;;;;;;;5.83;84.96;100657.70;1779689;78;21031;-81
2022/12/24 04:59:12;;;;;;;127.80;75.62;;;;;;;5.83;84.87;100656.86;1779198;78;21058;-85
2022/12/24 05:01:39;;;;;;;56.15;34.95;;;;;;;5.84;84.89;100658.55;1774221;80;20916;-83
2022/12/24 05:04:05;;;;;;;51.40;35.30;;;;;;;5.83;85.01;100659.47;1744915;80;21018;-82
2022/12/24 05:06:33;;;;;;;50.20;32.70;;;;;;;5.81;85.37;100664.72;1737960;80;21228;-82
2022/12/24 05:09:00;;;;;;;49.18;32.08;;;;;;;5.81;85.60;100662.95;1740278;81;20916;-83
2022/12/24 05:11:30;;;;;;;47.93;32.38;;;;;;;5.80;85.52;100656.07;1780998;80;20959;-84
2022/12/24 05:14:01;;;;;;;51.40;32.53;;;;;;;5.78;85.45;100656.59;1727605;80;20955;-83
2022/12/24 05:16:28;;;;;;;56.20;34.20;;;;;;;5.73;85.55;100658.50;1778505;80;20916;-84
2022/12/24 05:18:54;;;;;;;49.83;32.58;;;;;;;5.71;85.59;100689.39;1761581;79;21136;-83
2022/12/24 05:21:22;;;;;;;50.25;32.25;;;;;;;5.71;85.59;100703.70;1707321;80;20968;-83
2022/12/24 05:26:36;;;;;;;47.13;31.97;;;;;;;5.64;86.59;100704.39;1722402;80;20916;-84
2022/12/24 05:29:05;;;;;;;48.05;31.45;;;;;;;5.67;86.64;100708.20;1776590;80;20913;-83
2022/12/24 05:31:32;;;;;;;48.25;32.40;;;;;;;5.69;86.76;100708.98;1775970;78;21216;-82
2022/12/24 05:34:00;;;;;;;49.60;33.28;;;;;;;5.74;86.75;100712.71;1776997;80;20897;-83
2022/12/24 05:36:26;;;;;;;50.38;32.48;;;;;;;5.75;86.79;100711.79;1778077;78;20872;-85
2022/12/24 05:38:54;;;;;;;54.75;35.73;;;;;;;5.78;86.92;100704.73;1767745;80;20857;-83
2022/12/24 05:41:20;;;;;;;54.50;33.60;;;;;;;5.78;86.58;100700.82;1777740;80;20979;-83
2022/12/24 05:43:47;;;;;;;51.35;34.25;;;;;;;5.80;86.41;100704.64;1779590;80;21116;-84
2022/12/24 05:46:17;;;;;;;49.23;31.65;;;;;;;5.83;86.46;100699.34;1777594;78;21051;-82
2022/12/24 05:48:44;;;;;;;46.08;30.17;;;;;;;5.86;86.40;100696.61;1780129;78;21442;-84
2022/12/24 05:51:12;;;;;;;54.15;33.02;;;;;;;5.86;86.47;100697.91;1778122;78;20983;-84
2022/12/24 05:53:40;;;;;;;50.25;31.82;;;;;;;5.89;86.90;100699.53;1780089;78;20900;-83
2022/12/24 05:56:12;;;;;;;52.40;32.03;;;;;;;5.92;86.93;100702.04;1777646;78;21141;-85
2022/12/24 05:58:39;;;;;;;53.68;34.70;;;;;;;5.93;87.02;100704.56;1777481;80;20951;-85
2022/12/24 06:01:07;;;;;;;53.73;34.73;;;;;;;6.00;87.26;100701.29;1753319;80;20912;-84
2022/12/24 06:03:33;;;;;;;61.23;36.17;;;;;;;6.04;86.92;100704.63;1780961;79;21130;-85
2022/12/24 06:06:03;;;;;;;62.88;34.83;;;;;;;6.06;86.52;100708.86;1776882;78;21157;-83
2022/12/24 06:08:30;;;;;;;53.48;34.10;;;;;;;6.06;86.08;100702.81;1784635;78;21524;-83
2022/12/24 06:10:58;;;;;;;55.25;33.25;;;;;;;6.07;85.75;100709.70;1778861;78;20928;-85
2022/12/24 06:13:25;;;;;;;52.95;33.40;;;;;;;6.05;85.74;100710.22;1777862;79;20987;-83
2022/12/24 06:15:57;;;;;;;63.55;36.80;;;;;;;6.03;85.66;100705.55;1777925;80;20909;-82
2022/12/24 06:18:24;;;;;;;53.38;35.17;;;;;;;5.98;85.44;100711.79;1780143;80;20928;-85
2022/12/24 06:20:55;;;;;;;53.98;35.45;;;;;;;5.94;85.30;100707.60;1773604;78;21204;-83
2022/12/24 06:23:23;;;;;;;59.23;36.40;;;;;;;5.93;85.23;100712.83;1784443;78;21038;-83
2022/12/24 06:25:49;;;;;;;58.90;37.20;;;;;;;5.89;85.20;100712.12;1784466;78;21116;-85
2022/12/24 06:28:16;;;;;;;50.40;33.20;;;;;;;5.91;85.27;100714.64;1780715;78;21576;-84
2022/12/24 06:30:48;;;;;;;52.95;33.63;;;;;;;5.88;85.04;100717.38;1772768;78;20939;-83
2022/12/24 06:33:14;;;;;;;53.20;33.90;;;;;;;5.80;85.27;100708.13;1779455;78;21138;-83
2022/12/24 06:35:41;;;;;;;57.33;34.25;;;;;;;5.78;85.60;100711.23;1772277;78;21033;-85
2022/12/24 06:38:08;;;;;;;55.95;34.98;;;;;;;5.76;85.69;100705.23;1778221;78;20869;-84
2022/12/24 06:40:37;;;;;;;55.08;35.75;;;;;;;5.73;85.88;100698.83;1777876;78;21409;-86
2022/12/24 06:43:04;;;;;;;54.25;35.03;;;;;;;5.75;86.36;100692.27;1756026;80;20931;-85
2022/12/24 06:45:31;;;;;;;55.52;36.88;;;;;;;5.80;86.37;100691.20;1776282;78;21199;-83
2022/12/24 06:47:58;;;;;;;57.30;36.45;;;;;;;5.84;86.24;100683.27;1779801;78;20892;-83
2022/12/24 06:50:25;;;;;;;56.30;35.92;;;;;;;5.86;86.27;100694.47;1777988;80;21117;-84
2022/12/24 06:52:51;;;;;;;53.60;33.88;;;;;;;5.94;86.25;100688.52;1774819;80;21003;-84
2022/12/24 06:55:18;;;;;;;52.83;32.28;;;;;;;6.00;86.15;100688.28;1779584;80;21011;-84
2022/12/24 06:57:44;;;;;;;52.13;33.23;;;;;;;6.06;86.09;100692.41;1776454;78;21949;-83
2022/12/24 07:00:12;;;;;;;49.88;32.78;;;;;;;6.13;86.03;100691.24;1768605;80;21046;-83
2022/12/24 07:02:41;;;;;;;53.52;34.33;;;;;;;6.15;86.06;100678.55;1760841;80;20952;-84
2022/12/24 07:05:09;;;;;;;53.70;32.83;;;;;;;6.22;85.98;100686.53;1749915;80;20971;-84
2022/12/24 07:07:41;;;;;;;51.45;34.80;;;;;;;6.31;85.64;100689.64;1739262;81;20937;-83
2022/12/24 07:10:15;;;;;;;57.23;37.15;;;;;;;6.35;85.54;100680.33;1754548;80;21242;-85
2022/12/24 07:12:42;;;;;;;50.63;34.48;;;;;;;6.40;85.23;100684.05;1774480;80;21572;-84
2022/12/24 07:15:10;;;;;;;50.10;32.50;;;;;;;6.41;84.76;100686.59;1743519;80;20991;-84
2022/12/24 07:17:36;;;;;;;50.55;32.58;;;;;;;6.41;84.39;100692.27;1768471;80;20952;-85
2022/12/24 07:20:05;;;;;;;52.60;34.27;;;;;;;6.41;84.39;100695.72;1751276;80;20900;-85
2022/12/24 07:22:31;;;;;;;52.83;32.25;;;;;;;6.40;84.25;100700.98;1772582;80;21203;-85
2022/12/24 07:24:58;;;;;;;52.23;34.35;;;;;;;6.39;84.38;100698.00;1771704;80;20979;-84
2022/12/24 07:27:26;;;;;;;54.48;36.17;;;;;;;6.40;84.45;100704.89;1774450;80;20881;-83
2022/12/24 07:29:53;;;;;;;53.85;36.05;;;;;;;6.42;84.51;100702.64;1775593;80;20885;-84
2022/12/24 07:32:20;;;;;;;59.45;37.17;;;;;;;6.49;84.50;100707.14;1762062;80;20979;-83
2022/12/24 07:34:46;;;;;;;51.63;35.38;;;;;;;6.53;84.13;100716.49;1775041;80;21078;-82
2022/12/24 07:37:13;;;;;;;59.03;34.63;;;;;;;6.53;83.81;100701.32;1758030;80;20912;-83
2022/12/24 07:39:40;;;;;;;57.03;37.05;;;;;;;6.54;83.69;100707.78;1753174;80;20992;-84
2022/12/24 07:42:07;;;;;;;49.65;33.08;;;;;;;6.56;83.58;100699.91;1754146;80;20892;-85
2022/12/24 07:44:35;;;;;;;51.77;33.28;;;;;;;6.61;83.89;100701.86;1763999;80;20928;-85
2022/12/24 07:47:01;;;;;;;56.95;35.52;;;;;;;6.70;83.96;100704.53;1745804;80;21204;-86
2022/12/24 07:49:28;;;;;;;56.23;34.20;;;;;;;6.74;83.53;100704.80;1757587;80;21007;-84
2022/12/24 07:51:54;;;;;;;55.98;35.90;;;;;;;6.73;83.32;100707.00;1761168;80;21047;-83
2022/12/24 07:54:21;;;;;;;50.58;35.13;;;;;;;6.70;83.31;100708.44;1771195;81;20971;-84
2022/12/24 07:56:48;;;;;;;56.25;35.58;;;;;;;6.71;83.36;100707.05;1752143;80;20947;-86
2022/12/24 07:59:15;;;;;;;63.38;38.78;;;;;;;6.72;83.18;100707.46;1755661;80;21860;-82
2022/12/24 08:01:41;;;;;;;52.53;34.63;;;;;;;6.76;83.13;100712.06;1739829;80;20923;-85
2022/12/24 08:04:08;;;;;;;53.78;35.48;;;;;;;6.78;83.35;100714.16;1748774;80;21026;-82
2022/12/24 08:06:35;;;;;;;57.65;36.98;;;;;;;6.80;83.46;100711.03;1760692;80;21426;-83
2022/12/24 08:09:03;;;;;;;59.15;39.92;;;;;;;6.87;83.50;100702.48;1771040;80;20924;-84
2022/12/24 08:11:29;;;;;;;62.03;41.08;;;;;;;6.93;83.30;100704.38;1774809;80;21776;-83
2022/12/24 08:13:57;;;;;;;68.33;43.02;;;;;;;6.97;82.96;100704.63;1746497;80;20951;-84
2022/12/24 08:16:24;;;;;;;75.60;42.93;;;;;;;7.01;83.08;100706.20;1773456;80;20893;-85
2022/12/24 08:18:51;;;;;;;65.45;39.45;;;;;;;7.06;82.65;100699.48;1769398;80;20944;-85
2022/12/24 08:21:18;;;;;;;50.73;35.73;;;;;;;7.09;82.66;100704.55;1774001;80;21003;-84
2022/12/24 08:23:46;;;;;;;54.27;35.48;;;;;;;7.15;82.61;100704.75;1767190;80;21776;-83
2022/12/24 08:26:13;;;;;;;52.23;35.35;;;;;;;7.22;82.62;100700.94;1754771;79;20959;-84
2022/12/24 08:28:40;;;;;;;49.80;33.83;;;;;;;7.32;82.42;100704.00;1753961;80;21171;-83
2022/12/24 08:31:06;;;;;;;50.03;35.35;;;;;;;7.36;82.17;100709.02;1769601;80;21366;-84
2022/12/24 08:33:33;;;;;;;57.05;37.17;;;;;;;7.40;82.11;100704.48;1776539;79;20996;-84
2022/12/24 08:36:00;;;;;;;53.48;35.60;;;;;;;7.45;82.00;100708.59;1740264;80;21182;-85
2022/12/24 08:38:27;;;;;;;54.08;37.28;;;;;;;7.53;82.07;100706.08;1746680;80;20928;-84
2022/12/24 08:40:54;;;;;;;54.08;35.30;;;;;;;7.57;81.55;100698.50;1774956;80;20980;-84
2022/12/24 08:43:21;;;;;;;56.68;36.77;;;;;;;7.59;81.44;100697.97;1770730;80;20955;-85
2022/12/24 08:45:48;;;;;;;54.10;34.03;;;;;;;7.63;81.51;100691.23;1765510;80;20996;-86
2022/12/24 08:48:15;;;;;;;52.10;35.60;;;;;;;7.73;81.57;100686.88;1754815;80;22223;-84
2022/12/24 08:50:41;;;;;;;48.13;33.95;;;;;;;7.84;81.57;100681.53;1763589;80;21042;-85
2022/12/24 08:53:09;;;;;;;48.85;33.73;;;;;;;8.00;81.38;100682.11;1745902;80;21032;-85
2022/12/24 08:55:35;;;;;;;51.88;36.08;;;;;;;8.06;80.88;100679.20;1767976;80;21082;-85
2022/12/24 08:58:04;;;;;;;55.60;36.63;;;;;;;8.09;80.51;100675.13;1772515;80;20936;-84
2022/12/24 09:00:32;;;;;;;54.95;37.70;;;;;;;8.12;80.29;100677.61;1773604;80;21228;-85
2022/12/24 09:02:58;;;;;;;51.42;36.48;;;;;;;8.13;80.11;100679.75;1755828;80;21434;-85
2022/12/24 09:05:25;;;;;;;52.43;36.30;;;;;;;8.12;80.06;100677.61;1745188;80;20933;-85
2022/12/24 09:07:52;;;;;;;59.23;36.85;;;;;;;8.10;79.99;100671.14;1747039;80;20911;-86
2022/12/24 09:10:19;;;;;;;49.18;33.20;;;;;;;8.10;80.20;100672.45;1758681;80;20987;-83
2022/12/24 09:12:46;;;;;;;52.73;38.13;;;;;;;8.08;80.03;100666.45;1763133;80;20884;-85
2022/12/24 09:15:13;;;;;;;54.30;37.08;;;;;;;8.01;80.03;100665.53;1769815;78;20856;-84
2022/12/24 09:17:40;;;;;;;59.70;37.67;;;;;;;7.90;80.22;100666.05;1777710;78;20897;-84
2022/12/24 09:20:08;;;;;;;63.28;39.42;;;;;;;7.82;80.63;100663.78;1776599;78;21444;-86
2022/12/24 09:22:36;;;;;;;66.90;42.27;;;;;;;7.80;80.69;100664.34;1754280;80;20952;-85
2022/12/24 09:25:05;;;;;;;58.87;38.95;;;;;;;7.75;80.84;100666.78;1770863;80;21229;-85
2022/12/24 09:27:32;;;;;;;60.88;38.02;;;;;;;7.71;80.90;100668.67;1777933;78;20955;-85
2022/12/24 09:29:58;;;;;;;59.18;34.27;;;;;;;7.65;81.17;100664.61;1755019;80;21741;-84
2022/12/24 09:32:24;;;;;;;57.25;36.35;;;;;;;7.60;81.59;100661.38;1716288;83;21027;-83
2022/12/24 09:34:51;;;;;;;54.95;34.67;;;;;;;7.57;82.01;100661.97;1718068;83;21046;-85
2022/12/24 09:37:17;;;;;;;52.70;35.78;;;;;;;7.59;82.42;100660.97;1777189;78;21149;-85
2022/12/24 09:39:44;;;;;;;49.95;36.08;;;;;;;7.65;82.58;100658.55;1776795;78;20940;-86
2022/12/24 09:42:41;;;;;;;51.92;35.20;;;;;;;7.69;82.58;100665.29;1776449;78;20992;-84
2022/12/24 09:45:31;;;;;;;49.73;34.80;;;;;;;7.66;82.49;100657.15;1777145;78;20956;-86
2022/12/24 09:48:04;;;;;;;45.55;32.28;;;;;;;7.61;82.59;100651.77;1777636;78;21058;-84
2022/12/24 09:51:07;;;;;;;52.17;35.92;;;;;;;7.61;82.98;100652.61;1778180;78;21889;-86
2022/12/24 09:53:58;;;;;;;50.67;36.33;;;;;;;7.60;83.14;100644.84;1780576;78;20913;-85
2022/12/24 09:56:38;;;;;;;52.80;36.75;;;;;;;7.61;83.46;100640.03;1747534;80;20952;-86
2022/12/24 09:59:15;;;;;;;55.52;37.45;;;;;;;7.63;83.72;100653.39;1773871;78;21062;-85
2022/12/24 10:01:41;;;;;;;48.70;35.08;;;;;;;7.66;83.57;100639.34;1774024;78;20896;-87
2022/12/24 10:04:20;;;;;;;52.30;36.68;;;;;;;7.61;83.54;100638.27;1768627;80;21744;-83
2022/12/24 10:07:31;;;;;;;52.17;34.92;;;;;;;7.58;83.57;100631.89;1740470;80;21062;-86
2022/12/24 10:10:21;;;;;;;53.38;34.10;;;;;;;7.55;83.65;100633.33;1764129;80;21035;-85
2022/12/24 10:13:35;;;;;;;54.33;34.45;;;;;;;7.51;83.99;100633.08;1752924;80;21034;-83
2022/12/24 10:16:09;;;;;;;46.25;32.80;;;;;;;7.50;84.37;100620.96;1780222;80;21018;-85
2022/12/24 10:19:08;;;;;;;50.15;33.40;;;;;;;7.51;84.51;100622.64;1780628;78;21349;-84
2022/12/24 10:25:05;;;;;;;58.25;37.58;;;;;;;7.53;84.24;100626.02;1854881;76;22685;-83
2022/12/24 10:27:36;;;;;;;49.58;34.35;;;;;;;7.44;84.29;100634.29;1822782;78;20959;-85
2022/12/24 10:30:13;;;;;;;54.25;35.73;;;;;;;7.42;84.48;100629.59;1822269;78;20959;-84
2022/12/24 10:32:39;;;;;;;57.13;35.38;;;;;;;7.43;84.84;100632.14;1792185;78;20836;-84
2022/12/24 10:35:17;;;;;;;48.63;35.08;;;;;;;7.46;84.94;100630.69;1822231;78;20961;-86
2022/12/24 10:37:46;;;;;;;48.60;34.08;;;;;;;7.48;84.95;100638.45;1822473;78;21463;-86
2022/12/24 10:40:26;;;;;;;56.92;38.00;;;;;;;7.46;84.95;100631.15;1822128;78;21392;-86
2022/12/24 10:42:53;;;;;;;54.70;37.88;;;;;;;7.46;84.99;100635.06;1822361;78;21093;-84
2022/12/24 10:45:21;;;;;;;51.55;36.55;;;;;;;7.47;84.99;100630.25;1822200;78;20883;-86
2022/12/24 10:47:52;;;;;;;48.85;35.40;;;;;;;7.50;84.89;100632.70;1822619;78;20923;-86
2022/12/24 10:50:32;;;;;;;48.78;34.30;;;;;;;7.54;84.78;100624.28;1822399;78;20927;-86
2022/12/24 10:53:23;;;;;;;50.98;34.38;;;;;;;7.55;84.81;100626.80;1822822;78;20853;-84
2022/12/24 10:55:49;;;;;;;54.35;37.10;;;;;;;7.58;84.95;100631.02;1822388;78;21133;-84
2022/12/24 10:58:18;;;;;;;50.73;36.23;;;;;;;7.59;85.08;100627.05;1822479;78;20829;-83
2022/12/24 11:00:51;;;;;;;56.33;37.42;;;;;;;7.64;85.07;100632.05;1822603;78;20962;-85
2022/12/24 11:03:22;;;;;;;52.33;38.33;;;;;;;7.66;84.87;100621.91;1822737;78;20927;-85
2022/12/24 11:06:09;;;;;;;47.53;33.70;;;;;;;7.65;84.90;100614.17;1822861;78;20828;-84
2022/12/24 11:08:40;;;;;;;49.27;34.67;;;;;;;7.66;84.81;100612.78;1823191;78;21193;-84
2022/12/24 11:11:15;;;;;;;44.48;32.40;;;;;;;7.73;85.11;100609.87;1823361;78;20921;-83
2022/12/24 11:13:50;;;;;;;48.70;31.15;;;;;;;7.83;85.19;100617.66;1824540;78;20923;-83
2022/12/24 11:16:31;;;;;;;39.92;32.60;;;;;;;7.92;85.00;100613.30;1823943;78;20848;-82
2022/12/24 11:19:00;;;;;;;41.75;32.98;;;;;;;7.98;84.66;100614.74;1806819;78;20914;-85
2022/12/24 11:21:36;;;;;;;46.55;32.95;;;;;;;8.02;84.81;100610.59;1793903;78;21006;-84
2022/12/24 11:24:26;;;;;;;41.70;31.50;;;;;;;8.11;84.59;100610.60;1824519;78;20888;-83
2022/12/24 11:26:53;;;;;;;48.42;32.28;;;;;;;8.16;84.18;100611.67;1824208;78;20939;-83
2022/12/24 11:29:27;;;;;;;44.45;30.17;;;;;;;8.17;83.77;100610.30;1823514;78;20907;-87
2022/12/24 11:32:19;;;;;;;40.80;31.00;;;;;;;8.18;83.61;100613.75;1822304;78;21400;-86
2022/12/24 11:34:46;;;;;;;44.80;30.97;;;;;;;8.19;83.71;100607.16;1784098;80;21881;-85
2022/12/24 11:37:22;;;;;;;43.52;29.85;;;;;;;8.21;83.66;100609.23;1814074;77;20886;-83
2022/12/24 11:39:57;;;;;;;39.65;30.25;;;;;;;8.18;83.77;100605.91;1824707;77;20848;-83
2022/12/24 11:42:39;;;;;;;46.23;31.85;;;;;;;8.16;83.88;100606.45;1822480;78;20978;-85